createdAt,value
2022-11-04T00:02:17.799Z,6.72
2022-11-04T00:04:47.613Z,7.28
2022-11-04T00:07:33.419Z,7.38
2022-11-04T00:10:02.160Z,7.20
2022-11-04T00:12:30.530Z,6.07
2022-11-04T00:15:19.189Z,6.05
2022-11-04T00:17:46.522Z,5.70
2022-11-04T00:20:34.186Z,5.93
2022-11-04T00:23:20.029Z,6.03
2022-11-04T00:26:09.462Z,5.65
2022-11-04T00:28:43.830Z,5.32
2022-11-04T00:31:30.417Z,5.15
2022-11-04T00:34:00.269Z,4.57
2022-11-04T00:36:30.839Z,4.93
2022-11-04T00:38:59.483Z,4.10
2022-11-04T00:41:28.546Z,4.25
2022-11-04T00:43:58.315Z,4.22
2022-11-04T00:46:27.973Z,4.10
2022-11-04T00:48:56.569Z,4.00
2022-11-04T00:51:24.867Z,4.13
2022-11-04T00:53:55.038Z,4.43
2022-11-04T00:56:23.422Z,3.92
2022-11-04T00:58:51.956Z,3.88
2022-11-04T01:01:21.501Z,3.58
2022-11-04T01:03:52.667Z,3.92
2022-11-04T01:06:24.490Z,3.88
2022-11-04T01:08:58.873Z,3.85
2022-11-04T01:11:28.283Z,3.85
2022-11-04T01:13:57.355Z,4.30
2022-11-04T01:19:01.470Z,4.18
2022-11-04T01:21:29.891Z,4.22
2022-11-04T01:24:01.462Z,4.07
2022-11-04T01:26:30.720Z,3.95
2022-11-04T01:29:00.145Z,3.80
2022-11-04T01:31:30.676Z,3.55
2022-11-04T01:33:59.992Z,4.07
2022-11-04T01:36:29.123Z,3.80
2022-11-04T01:38:59.399Z,3.75
2022-11-04T01:41:30.041Z,4.05
2022-11-04T01:44:00.235Z,3.70
2022-11-04T01:46:42.657Z,3.72
2022-11-04T01:49:23.204Z,3.42
2022-11-04T01:51:54.971Z,3.40
2022-11-04T01:54:25.040Z,3.38
2022-11-04T01:56:55.112Z,3.10
2022-11-04T01:59:29.562Z,3.27
2022-11-04T02:01:58.393Z,3.10
2022-11-04T02:04:26.850Z,3.10
2022-11-04T02:06:58.162Z,2.97
2022-11-04T02:09:30.796Z,2.88
2022-11-04T02:12:17.122Z,2.63
2022-11-04T02:14:47.751Z,3.10
2022-11-04T02:17:28.510Z,2.67
2022-11-04T02:20:10.607Z,2.70
2022-11-04T02:23:19.549Z,2.97
2022-11-04T02:26:23.484Z,2.85
2022-11-04T02:29:13.432Z,2.80
2022-11-04T02:31:49.789Z,2.90
2022-11-04T02:34:22.976Z,2.60
2022-11-04T02:36:56.415Z,2.58
2022-11-04T02:39:36.886Z,2.60
2022-11-04T02:42:12.456Z,2.58
2022-11-04T02:44:49.869Z,2.70
2022-11-04T02:47:22.991Z,2.50
2022-11-04T02:49:56.713Z,2.83
2022-11-04T02:52:31.928Z,2.60
2022-11-04T02:55:04.453Z,2.50
2022-11-04T02:57:36.975Z,2.53
2022-11-04T03:00:09.384Z,2.50
2022-11-04T03:02:42.656Z,2.67
2022-11-04T03:05:16.319Z,2.33
2022-11-04T03:07:47.820Z,2.65
2022-11-04T03:10:20.077Z,2.60
2022-11-04T03:12:52.777Z,2.80
2022-11-04T03:15:29.349Z,2.80
2022-11-04T03:18:05.659Z,2.53
2022-11-04T03:20:37.791Z,2.60
2022-11-04T03:23:06.255Z,2.70
2022-11-04T03:25:40.697Z,2.50
2022-11-04T03:28:21.699Z,2.60
2022-11-04T03:30:56.887Z,2.83
2022-11-04T03:33:34.905Z,2.70
2022-11-04T03:36:04.652Z,2.83
2022-11-04T03:38:33.322Z,2.67
2022-11-04T03:41:03.452Z,2.40
2022-11-04T03:43:33.665Z,2.80
2022-11-04T03:46:04.267Z,2.80
2022-11-04T03:48:33.010Z,2.70
2022-11-04T03:51:02.394Z,2.50
2022-11-04T03:53:31.617Z,2.53
2022-11-04T03:56:13.711Z,2.53
2022-11-04T03:58:51.478Z,2.60
2022-11-04T04:01:29.249Z,2.30
2022-11-04T04:04:04.425Z,2.30
2022-11-04T04:06:35.924Z,2.70
2022-11-04T04:09:12.543Z,2.67
2022-11-04T04:11:46.745Z,2.53
2022-11-04T04:14:36.096Z,2.58
2022-11-04T04:19:47.186Z,2.70
2022-11-04T04:22:19.366Z,2.70
2022-11-04T04:25:08.529Z,2.75
2022-11-04T04:27:38.006Z,2.50
2022-11-04T04:30:09.216Z,2.80
2022-11-04T04:32:42.888Z,2.75
2022-11-04T04:35:29.503Z,2.85
2022-11-04T04:38:20.789Z,2.83
2022-11-04T04:41:12.499Z,2.63
2022-11-04T04:44:01.271Z,2.80
2022-11-04T04:46:32.549Z,2.78
2022-11-04T04:49:06.981Z,4.40
2022-11-04T04:51:39.947Z,3.63
2022-11-04T04:54:09.037Z,3.22
2022-11-04T04:56:37.700Z,2.90
2022-11-04T04:59:06.248Z,2.90
2022-11-04T05:01:34.954Z,2.80
2022-11-04T05:04:03.903Z,2.65
2022-11-04T05:06:33.578Z,2.95
2022-11-04T05:09:02.427Z,2.80
2022-11-04T05:11:30.936Z,3.72
2022-11-04T05:14:01.464Z,3.40
2022-11-04T05:18:58.714Z,2.80
2022-11-04T05:21:26.970Z,3.10
2022-11-04T05:23:56.876Z,3.28
2022-11-04T05:26:25.078Z,3.30
2022-11-04T05:28:53.664Z,3.05
2022-11-04T05:31:22.557Z,3.05
2022-11-04T05:33:50.890Z,3.05
2022-11-04T05:36:19.673Z,3.30
2022-11-04T05:38:52.144Z,3.53
2022-11-04T05:41:26.905Z,3.10
2022-11-04T05:43:56.045Z,3.40
2022-11-04T05:46:25.785Z,3.10
2022-11-04T05:48:54.454Z,3.20
2022-11-04T05:51:25.543Z,3.13
2022-11-04T05:53:57.253Z,2.90
2022-11-04T05:56:27.325Z,3.10
2022-11-04T05:58:55.587Z,3.10
2022-11-04T06:01:32.776Z,3.35
2022-11-04T06:04:01.909Z,3.33
2022-11-04T06:06:32.230Z,3.78
2022-11-04T06:09:01.551Z,5.45
2022-11-04T06:11:32.422Z,5.15
2022-11-04T06:14:02.804Z,6.65
2022-11-04T06:16:31.247Z,6.05
2022-11-04T06:19:05.127Z,4.38
2022-11-04T06:21:36.935Z,4.13
2022-11-04T06:24:05.888Z,3.33
2022-11-04T06:26:35.749Z,3.38
2022-11-04T06:29:04.179Z,4.00
2022-11-04T06:31:32.799Z,4.30
2022-11-04T06:34:01.117Z,4.35
2022-11-04T06:36:29.405Z,3.30
2022-11-04T06:39:03.022Z,3.25
2022-11-04T06:41:33.291Z,3.30
2022-11-04T06:44:02.921Z,4.13
2022-11-04T06:46:36.259Z,3.20
2022-11-04T06:49:05.015Z,3.20
2022-11-04T06:51:34.778Z,3.22
2022-11-04T06:54:03.185Z,9.02
2022-11-04T06:56:32.417Z,9.00
2022-11-04T06:59:02.222Z,3.88
2022-11-04T07:01:33.988Z,3.53
2022-11-04T07:04:05.296Z,3.53
2022-11-04T07:06:36.255Z,3.67
2022-11-04T07:09:06.814Z,3.83
2022-11-04T07:11:35.313Z,3.55
2022-11-04T07:14:05.336Z,3.20
2022-11-04T07:16:33.904Z,3.60
2022-11-04T07:19:02.534Z,3.67
2022-11-04T07:21:31.007Z,3.80
2022-11-04T07:23:59.963Z,4.65
2022-11-04T07:26:28.330Z,4.18
2022-11-04T07:29:00.945Z,3.88
2022-11-04T07:31:30.843Z,3.97
2022-11-04T07:34:00.062Z,3.80
2022-11-04T07:36:28.371Z,3.65
2022-11-04T07:41:27.267Z,3.53
2022-11-04T07:43:58.860Z,3.33
2022-11-04T07:46:27.498Z,3.47
2022-11-04T07:49:00.260Z,3.60
2022-11-04T07:51:28.715Z,3.35
2022-11-04T07:53:57.266Z,3.50
2022-11-04T07:56:25.974Z,3.63
2022-11-04T07:58:54.491Z,3.60
2022-11-04T08:01:24.921Z,3.53
2022-11-04T08:03:53.875Z,3.47
2022-11-04T08:06:23.709Z,3.70
2022-11-04T08:08:54.022Z,3.80
2022-11-04T08:11:25.203Z,3.60
2022-11-04T08:13:53.582Z,3.30
2022-11-04T08:16:23.661Z,3.38
2022-11-04T08:18:53.345Z,3.28
2022-11-04T08:21:24.210Z,3.90
2022-11-04T08:26:23.551Z,3.30
2022-11-04T08:28:52.802Z,2.90
2022-11-04T08:31:24.463Z,2.78
2022-11-04T08:33:54.066Z,3.28
2022-11-04T08:36:26.123Z,3.30
2022-11-04T08:38:55.427Z,3.40
2022-11-04T08:41:26.993Z,3.25
2022-11-04T08:43:56.879Z,3.20
2022-11-04T08:46:25.383Z,3.40
2022-11-04T08:48:54.232Z,3.42
2022-11-04T08:51:26.578Z,4.03
2022-11-04T08:53:55.949Z,3.28
2022-11-04T08:56:26.574Z,3.17
2022-11-04T09:01:28.053Z,6.53
2022-11-04T09:03:59.192Z,4.82
2022-11-04T09:06:31.219Z,3.75
2022-11-04T09:09:03.899Z,3.60
2022-11-04T09:11:34.643Z,4.00
2022-11-04T09:14:04.076Z,3.60
2022-11-04T09:16:34.759Z,6.83
2022-11-04T09:19:25.870Z,3.53
2022-11-04T09:21:56.142Z,3.30
2022-11-04T09:24:24.681Z,3.65
2022-11-04T09:26:53.157Z,3.50
2022-11-04T09:29:22.276Z,3.65
2022-11-04T09:31:51.670Z,3.30
2022-11-04T09:34:20.485Z,3.60
2022-11-04T09:36:49.087Z,3.60
2022-11-04T09:39:20.185Z,3.70
2022-11-04T09:42:06.317Z,4.40
2022-11-04T09:45:07.325Z,4.40
2022-11-04T09:47:36.430Z,4.10
2022-11-04T09:52:40.928Z,3.72
2022-11-04T09:55:19.392Z,3.40
2022-11-04T09:57:55.227Z,3.30
2022-11-04T10:00:23.811Z,3.50
2022-11-04T10:03:06.152Z,3.60
2022-11-04T10:05:53.231Z,3.50
2022-11-04T10:08:49.665Z,3.30
2022-11-04T10:11:28.094Z,3.85
2022-11-04T10:14:11.471Z,3.17
2022-11-04T10:16:52.378Z,4.20
2022-11-04T10:19:35.076Z,4.55
2022-11-04T10:22:05.906Z,3.55
2022-11-04T10:24:43.581Z,3.88
2022-11-04T10:27:18.125Z,4.20
2022-11-04T10:29:50.324Z,4.68
2022-11-04T10:32:23.276Z,3.33
2022-11-04T10:35:23.760Z,3.50
2022-11-04T10:37:54.533Z,4.53
2022-11-04T10:40:26.800Z,4.20
2022-11-04T10:43:00.079Z,4.38
2022-11-04T10:45:35.707Z,3.55
2022-11-04T10:48:09.818Z,3.45
2022-11-04T10:50:43.382Z,3.65
2022-11-04T10:53:19.106Z,3.60
2022-11-04T10:55:53.133Z,5.05
2022-11-04T10:58:28.483Z,6.13
2022-11-04T11:00:57.822Z,4.50
2022-11-04T11:03:32.572Z,4.70
2022-11-04T11:06:24.908Z,3.78
2022-11-04T11:08:56.127Z,4.43
2022-11-04T11:11:39.857Z,4.20
2022-11-04T11:14:19.393Z,3.90
2022-11-04T11:16:48.243Z,3.70
2022-11-04T11:19:20.601Z,4.70
2022-11-04T11:21:50.273Z,3.78
2022-11-04T11:24:22.770Z,4.20
2022-11-04T11:26:53.163Z,4.45
2022-11-04T11:29:26.164Z,7.90
2022-11-04T11:31:55.745Z,4.10
2022-11-04T11:34:27.661Z,5.35
2022-11-04T11:36:57.313Z,4.22
2022-11-04T11:39:28.728Z,4.00
2022-11-04T11:42:00.459Z,4.13
2022-11-04T11:44:33.261Z,4.10
2022-11-04T11:47:03.820Z,3.80
2022-11-04T11:49:35.948Z,3.65
2022-11-04T11:52:31.839Z,3.35
2022-11-04T11:55:06.899Z,3.50
2022-11-04T11:57:45.186Z,3.65
2022-11-04T12:03:16.169Z,3.45
2022-11-04T12:14:28.391Z,4.35
2022-11-04T12:17:05.465Z,4.55
2022-11-04T12:19:47.251Z,4.60
2022-11-04T12:22:27.480Z,4.90
2022-11-04T12:27:48.003Z,4.30
2022-11-04T12:30:26.079Z,4.25
2022-11-04T12:33:18.862Z,4.50
2022-11-04T12:36:01.249Z,4.22
2022-11-04T12:41:46.721Z,4.97
2022-11-04T12:44:29.558Z,3.65
2022-11-04T12:47:11.943Z,3.95
2022-11-04T12:50:10.475Z,4.13
2022-11-04T12:52:59.978Z,3.97
2022-11-04T12:55:44.096Z,4.60
2022-11-04T12:58:35.459Z,4.10
2022-11-04T13:01:15.004Z,4.00
2022-11-04T13:03:53.078Z,3.90
2022-11-04T13:06:25.436Z,4.13
2022-11-04T13:08:59.022Z,4.00
2022-11-04T13:11:32.587Z,3.63
2022-11-04T13:14:08.210Z,3.80
2022-11-04T13:16:41.400Z,3.80
2022-11-04T13:19:32.332Z,4.47
2022-11-04T13:22:07.212Z,3.80
2022-11-04T13:24:42.443Z,3.90
2022-11-04T13:27:20.355Z,3.97
2022-11-04T13:29:55.301Z,4.40
2022-11-04T13:32:31.664Z,3.65
2022-11-04T13:35:10.283Z,3.47
2022-11-04T13:37:44.795Z,3.92
2022-11-04T13:43:43.052Z,4.70
2022-11-04T13:46:25.143Z,3.70
2022-11-04T13:49:04.196Z,4.00
2022-11-04T13:51:43.399Z,3.40
2022-11-04T13:54:31.570Z,3.90
2022-11-04T13:57:10.440Z,4.47
2022-11-04T13:59:40.034Z,4.60
2022-11-04T14:02:44.076Z,4.20
2022-11-04T14:05:56.812Z,4.03
2022-11-04T14:08:26.866Z,3.65
2022-11-04T14:13:47.196Z,3.00
2022-11-04T14:16:42.505Z,2.80
2022-11-04T14:19:58.789Z,3.00
2022-11-04T14:22:47.806Z,2.80
2022-11-04T14:25:26.132Z,2.95
2022-11-04T14:27:57.137Z,2.63
2022-11-04T14:30:53.995Z,2.97
2022-11-04T14:36:35.772Z,2.90
2022-11-04T14:44:55.831Z,3.20
2022-11-04T14:47:30.563Z,3.30
2022-11-04T14:50:13.761Z,3.00
2022-11-04T14:52:50.190Z,3.38
2022-11-04T14:55:37.897Z,4.03
2022-11-04T14:58:25.631Z,5.45
2022-11-04T15:01:00.072Z,5.18
2022-11-04T15:04:10.604Z,4.00
2022-11-04T15:09:23.781Z,4.30
2022-11-04T15:12:28.502Z,10.32
2022-11-04T15:15:00.125Z,3.13
2022-11-04T15:17:32.853Z,3.38
2022-11-04T15:20:04.745Z,2.83
2022-11-04T15:22:34.110Z,2.20
2022-11-04T15:25:05.834Z,2.60
2022-11-04T15:27:35.199Z,2.50
2022-11-04T15:33:19.823Z,3.08
2022-11-04T15:35:52.332Z,3.38
2022-11-04T15:38:21.037Z,2.90
2022-11-04T15:40:50.767Z,2.65
2022-11-04T15:43:18.465Z,2.73
2022-11-04T15:45:55.956Z,2.85
2022-11-04T15:48:31.428Z,3.10
2022-11-04T15:54:23.323Z,3.40
2022-11-04T15:56:55.374Z,3.42
2022-11-04T15:59:27.955Z,3.67
2022-11-04T16:01:57.085Z,3.25
2022-11-04T16:04:29.498Z,3.20
2022-11-04T16:07:22.797Z,3.67
2022-11-04T16:09:53.527Z,3.90
2022-11-04T16:12:30.807Z,4.72
2022-11-04T16:15:00.914Z,4.10
2022-11-04T16:17:30.570Z,3.85
2022-11-04T16:20:04.658Z,3.78
2022-11-04T16:22:37.073Z,6.35
2022-11-04T16:25:21.063Z,4.53
2022-11-04T16:27:49.816Z,4.28
2022-11-04T16:30:21.497Z,3.63
2022-11-04T16:32:51.534Z,3.30
2022-11-04T16:35:24.205Z,3.30
2022-11-04T16:37:53.001Z,4.03
2022-11-04T16:40:24.387Z,4.07
2022-11-04T16:42:54.163Z,5.40
2022-11-04T16:45:27.429Z,5.32
2022-11-04T16:47:56.158Z,6.38
2022-11-04T16:50:45.612Z,34.22
2022-11-04T16:53:14.415Z,10.48
2022-11-04T16:55:44.972Z,4.85
2022-11-04T16:58:19.550Z,3.38
2022-11-04T17:00:47.751Z,5.28
2022-11-04T17:03:21.987Z,6.57
2022-11-04T17:05:54.128Z,6.28
2022-11-04T17:08:23.045Z,7.93
2022-11-04T17:10:51.608Z,8.32
2022-11-04T17:13:20.157Z,7.70
2022-11-04T17:15:48.859Z,7.88
2022-11-04T17:18:19.414Z,10.50
2022-11-04T17:20:52.770Z,8.52
2022-11-04T17:23:23.360Z,8.90
2022-11-04T17:25:52.779Z,8.88
2022-11-04T17:28:21.404Z,9.52
2022-11-04T17:30:50.408Z,14.98
2022-11-04T17:33:20.235Z,18.08
2022-11-04T17:35:51.322Z,17.95
2022-11-04T17:38:21.867Z,7.43
2022-11-04T17:41:07.707Z,6.03
2022-11-04T17:43:53.726Z,5.88
2022-11-04T17:46:38.886Z,5.65
2022-11-04T17:49:13.783Z,5.30
2022-11-04T17:51:44.139Z,4.70
2022-11-04T17:54:14.422Z,4.50
2022-11-04T17:56:43.729Z,4.30
2022-11-04T17:59:13.502Z,5.32
2022-11-04T18:01:43.224Z,9.20
2022-11-04T18:04:15.963Z,8.90
2022-11-04T18:06:44.703Z,5.85
2022-11-04T18:09:15.484Z,5.32
2022-11-04T18:12:02.385Z,23.75
2022-11-04T18:14:30.672Z,37.35
2022-11-04T18:16:59.839Z,21.60
2022-11-04T18:19:28.834Z,15.13
2022-11-04T18:21:59.506Z,12.48
2022-11-04T18:24:29.741Z,10.73
2022-11-04T18:26:59.205Z,11.23
2022-11-04T18:29:28.106Z,11.23
2022-11-04T18:31:56.599Z,10.75
2022-11-04T18:34:24.862Z,8.18
2022-11-04T18:36:53.079Z,6.93
2022-11-04T18:39:21.334Z,8.35
2022-11-04T18:41:50.962Z,9.13
2022-11-04T18:44:21.258Z,11.40
2022-11-04T18:46:50.396Z,8.95
2022-11-04T18:49:20.605Z,10.48
2022-11-04T18:51:48.790Z,10.98
2022-11-04T18:54:17.507Z,11.10
2022-11-04T18:56:45.736Z,11.73
2022-11-04T18:59:16.266Z,9.02
2022-11-04T19:04:14.395Z,7.90
2022-11-04T19:06:44.655Z,8.57
2022-11-04T19:12:20.710Z,8.85
2022-11-04T19:14:50.484Z,9.80
2022-11-04T19:17:19.082Z,9.20
2022-11-04T19:19:48.029Z,12.70
2022-11-04T19:22:16.414Z,14.52
2022-11-04T19:24:50.656Z,16.17
2022-11-04T19:27:21.505Z,19.48
2022-11-04T19:29:52.125Z,18.15
2022-11-04T19:32:20.419Z,15.35
2022-11-04T19:34:49.633Z,15.00
2022-11-04T19:37:18.237Z,13.73
2022-11-04T19:39:46.658Z,12.02
2022-11-04T19:42:34.517Z,12.40
2022-11-04T19:45:04.910Z,10.63
2022-11-04T19:47:33.437Z,10.77
2022-11-04T19:50:02.331Z,11.00
2022-11-04T19:52:32.704Z,10.68
2022-11-04T19:55:01.667Z,10.70
2022-11-04T19:57:31.732Z,10.55
2022-11-04T20:00:00.659Z,10.02
2022-11-04T20:02:30.877Z,10.35
2022-11-04T20:04:59.255Z,10.63
2022-11-04T20:07:28.164Z,10.77
2022-11-04T20:09:56.492Z,9.93
2022-11-04T20:12:42.447Z,10.25
2022-11-04T20:15:11.528Z,10.40
2022-11-04T20:17:41.696Z,10.45
2022-11-04T20:20:10.139Z,11.57
2022-11-04T20:22:39.613Z,10.60
2022-11-04T20:25:11.370Z,11.23
2022-11-04T20:27:40.511Z,11.73
2022-11-04T20:30:09.518Z,9.82
2022-11-04T20:32:38.554Z,8.32
2022-11-04T20:35:09.530Z,9.77
2022-11-04T20:37:38.543Z,9.07
2022-11-04T20:40:08.673Z,10.35
2022-11-04T20:42:38.260Z,10.70
2022-11-04T20:45:08.835Z,11.38
2022-11-04T20:47:38.089Z,10.52
2022-11-04T20:50:09.395Z,9.65
2022-11-04T20:52:38.016Z,9.57
2022-11-04T20:55:08.180Z,9.10
2022-11-04T20:57:36.417Z,8.90
2022-11-04T21:00:09.322Z,8.40
2022-11-04T21:02:37.596Z,7.18
2022-11-04T21:05:09.371Z,6.60
2022-11-04T21:07:38.339Z,8.27
2022-11-04T21:10:07.117Z,9.15
2022-11-04T21:12:35.914Z,8.02
2022-11-04T21:15:25.083Z,7.80
2022-11-04T21:17:53.520Z,9.43
2022-11-04T21:20:23.131Z,8.27
2022-11-04T21:22:53.402Z,8.30
2022-11-04T21:25:23.175Z,8.98
2022-11-04T21:27:52.444Z,8.55
2022-11-04T21:30:21.233Z,7.95
2022-11-04T21:32:49.495Z,7.80
2022-11-04T21:35:18.412Z,7.40
2022-11-04T21:37:48.092Z,7.93
2022-11-04T21:40:17.432Z,7.85
2022-11-04T21:42:46.180Z,7.57
2022-11-04T21:45:14.840Z,7.50
2022-11-04T21:47:43.694Z,7.43
2022-11-04T21:50:17.718Z,7.50
2022-11-04T21:52:48.097Z,6.72
2022-11-04T21:55:16.566Z,6.45
2022-11-04T21:57:45.191Z,6.90
2022-11-04T22:00:15.211Z,6.28
2022-11-04T22:02:47.570Z,5.70
2022-11-04T22:05:16.723Z,6.75
2022-11-04T22:08:04.151Z,6.47
2022-11-04T22:10:37.735Z,6.00
2022-11-04T22:13:06.519Z,5.28
2022-11-04T22:15:52.790Z,5.80
2022-11-04T22:18:21.370Z,5.93
2022-11-04T22:20:49.659Z,5.30
2022-11-04T22:23:18.366Z,5.55
2022-11-04T22:25:50.263Z,5.32
2022-11-04T22:28:19.548Z,5.90
2022-11-04T22:30:47.815Z,5.18
2022-11-04T22:33:16.263Z,5.18
2022-11-04T22:35:47.134Z,5.35
2022-11-04T22:38:15.855Z,5.28
2022-11-04T22:40:44.317Z,4.90
2022-11-04T22:43:14.263Z,4.80
2022-11-04T22:45:42.814Z,5.03
2022-11-04T22:48:11.015Z,5.13
2022-11-04T22:50:39.886Z,4.65
2022-11-04T22:53:08.657Z,5.38
2022-11-04T22:55:37.859Z,6.32
2022-11-04T22:58:06.231Z,4.80
2022-11-04T23:00:36.579Z,4.75
2022-11-04T23:03:05.460Z,4.70
2022-11-04T23:05:34.102Z,4.90
2022-11-04T23:08:03.718Z,4.82
2022-11-04T23:10:50.032Z,4.70
2022-11-04T23:13:36.180Z,4.70
2022-11-04T23:16:23.856Z,5.00
2022-11-04T23:18:53.069Z,4.72
2022-11-04T23:21:41.098Z,5.20
2022-11-04T23:24:27.169Z,5.05
2022-11-04T23:26:58.672Z,4.90
2022-11-04T23:29:49.956Z,5.47
2022-11-04T23:32:23.230Z,5.35
2022-11-04T23:35:13.246Z,5.03
2022-11-04T23:37:41.673Z,5.65
2022-11-04T23:40:11.007Z,6.03
2022-11-04T23:42:40.075Z,5.00
2022-11-04T23:45:27.426Z,4.93
2022-11-04T23:48:15.660Z,4.80
2022-11-04T23:51:02.015Z,5.78
2022-11-04T23:53:48.109Z,4.97
2022-11-04T23:56:34.292Z,4.57
2022-11-04T23:59:20.127Z,4.35
